Time;durP1;ratioP1;P1;durP2;ratioP2;P2;SDS_P1;SDS_P2;PMS_P1;PMS_P2;Temp;Humidity;BMP_temperature;BMP_pressure;BME280_temperature;BME280_humidity;BME280_pressure;Samples;Min_cycle;Max_cycle;Signal;HPM_P1;HPM_P2
2021/06/23 00:03:02;;;;;;;5.50;4.20;;;;;;;16.89;73.21;100249.38;10542566;28;20060;-61
2021/06/23 00:08:04;;;;;;;4.78;4.20;;;;;;;16.96;73.82;100253.09;10540451;28;20047;-61
2021/06/23 00:13:08;;;;;;;6.38;4.65;;;;;;;16.93;73.66;100264.19;10529216;28;20055;-61
2021/06/23 00:18:10;;;;;;;;;;;;;;;17.05;73.09;100266.53;10538023;28;20440;-59
2021/06/23 00:23:11;;;;;;;6.15;4.05;;;;;;;17.05;72.92;100255.78;10533096;28;19920;-60
2021/06/23 00:28:13;;;;;;;7.07;3.88;;;;;;;17.14;72.55;100252.09;10541328;28;20058;-60
2021/06/23 00:33:23;;;;;;;8.48;4.20;;;;;;;17.18;71.98;100247.25;10536802;28;20092;-61
2021/06/23 00:38:25;;;;;;;7.93;5.03;;;;;;;17.14;72.55;100254.78;10546408;28;20046;-61
2021/06/23 00:43:26;;;;;;;8.02;4.30;;;;;;;17.26;72.60;100263.38;10525585;28;20054;-60
2021/06/23 00:48:29;;;;;;;8.52;4.47;;;;;;;17.25;72.26;100246.41;10543927;28;20058;-60
2021/06/23 00:53:31;;;;;;;9.48;4.47;;;;;;;17.38;71.60;100251.28;10549135;28;20066;-60
2021/06/23 00:58:33;;;;;;;6.07;4.28;;;;;;;17.33;71.37;100255.50;10531620;28;20048;-60
2021/06/23 01:03:35;;;;;;;6.88;4.20;;;;;;;17.28;71.82;100254.13;10545633;27;20047;-61
2021/06/23 01:08:37;;;;;;;6.25;3.95;;;;;;;17.29;71.60;100253.16;10531125;28;20676;-60
2021/06/23 01:13:57;;;;;;;8.77;5.00;;;;;;;17.34;71.20;100249.09;10553997;28;20051;-62
2021/06/23 01:19:00;;;;;;;9.85;4.60;;;;;;;17.37;71.26;100257.69;10528054;28;20043;-61
2021/06/23 01:24:02;;;;;;;6.60;3.95;;;;;;;17.31;71.64;100261.88;10524388;28;20068;-61
2021/06/23 01:29:04;;;;;;;5.47;3.80;;;;;;;17.24;72.02;100277.00;10546732;28;20150;-61
2021/06/23 01:34:06;;;;;;;7.45;3.47;;;;;;;17.32;72.04;100284.22;10525282;28;20040;-61
2021/06/23 01:39:08;;;;;;;7.65;4.65;;;;;;;17.38;71.00;100290.78;10536659;28;20678;-61
2021/06/23 01:44:09;;;;;;;6.68;4.53;;;;;;;17.36;72.00;100303.59;10538398;28;20051;-61
2021/06/23 01:49:11;;;;;;;5.63;3.97;;;;;;;17.09;72.48;100300.19;10537343;28;20527;-61
2021/06/23 01:54:12;;;;;;;8.30;5.25;;;;;;;17.23;72.04;100291.44;10534839;28;20043;-61
2021/06/23 01:59:14;;;;;;;7.30;4.72;;;;;;;17.31;72.16;100309.47;10537667;28;20500;-59
2021/06/23 02:04:34;;;;;;;12.43;4.43;;;;;;;17.44;71.25;100301.75;10532365;28;20047;-61
2021/06/23 02:10:03;;;;;;;6.05;4.00;;;;;;;17.50;70.82;100286.75;10540500;27;20404;-65
2021/06/23 02:15:06;;;;;;;5.95;4.63;;;;;;;17.53;70.78;100280.22;10533743;28;20047;-60
2021/06/23 02:20:08;;;;;;;8.65;4.57;;;;;;;17.54;70.97;100285.41;10550730;28;20058;-61
2021/06/23 02:25:13;;;;;;;8.20;4.13;;;;;;;17.48;70.95;100283.41;10552794;28;20048;-61
2021/06/23 02:30:15;;;;;;;7.32;4.35;;;;;;;17.43;71.01;100277.66;10537232;28;20048;-60
2021/06/23 02:35:16;;;;;;;8.20;4.68;;;;;;;17.51;71.15;100290.31;10535563;28;20056;-62
2021/06/23 02:40:19;;;;;;;8.05;4.63;;;;;;;17.53;70.92;100286.41;10534706;28;20039;-61
2021/06/23 02:45:25;;;;;;;6.40;4.38;;;;;;;17.56;70.88;100275.31;10537353;28;20078;-60
2021/06/23 02:50:32;;;;;;;7.50;4.22;;;;;;;17.57;70.80;100268.94;10520357;28;20066;-64
2021/06/23 02:55:34;;;;;;;6.50;4.45;;;;;;;17.57;70.58;100271.63;10540206;28;20055;-60
2021/06/23 03:00:36;;;;;;;5.93;4.07;;;;;;;17.48;71.44;100278.03;10538151;28;20043;-60
2021/06/23 03:05:37;;;;;;;8.38;4.97;;;;;;;17.50;71.33;100284.06;10507350;22;20070;-62
2021/06/23 03:10:39;;;;;;;6.45;4.28;;;;;;;17.52;70.99;100265.94;10460209;28;20059;-62
2021/06/23 03:15:41;;;;;;;5.65;4.20;;;;;;;17.48;71.32;100273.47;10459606;28;20116;-62
2021/06/23 03:20:42;;;;;;;7.95;4.38;;;;;;;17.36;71.81;100285.59;10467895;28;20036;-63
2021/06/23 03:25:44;;;;;;;7.47;4.20;;;;;;;17.48;71.31;100283.41;10471819;28;20049;-62
2021/06/23 03:30:46;;;;;;;8.27;4.80;;;;;;;17.44;71.54;100292.81;10470465;28;20059;-62
2021/06/23 03:35:48;;;;;;;10.60;4.63;;;;;;;17.52;71.10;100298.22;10460854;28;21080;-63
2021/06/23 03:40:49;;;;;;;7.32;4.20;;;;;;;17.61;70.59;100285.56;10450028;28;20873;-66
2021/06/23 03:45:51;;;;;;;6.72;4.82;;;;;;;17.40;71.63;100288.75;10454382;28;20501;-62
2021/06/23 03:50:52;;;;;;;7.88;4.50;;;;;;;17.39;71.85;100298.69;10461905;28;20053;-62
2021/06/23 03:55:54;;;;;;;7.53;4.72;;;;;;;17.45;71.27;100297.19;10456048;28;20049;-62
2021/06/23 04:00:55;;;;;;;5.10;3.95;;;;;;;17.53;71.10;100302.56;10453876;28;20067;-64
2021/06/23 04:05:57;;;;;;;8.23;4.72;;;;;;;17.51;71.53;100304.59;10456056;28;20057;-60
2021/06/23 04:10:59;;;;;;;9.18;4.68;;;;;;;17.32;72.53;100300.38;10469729;28;20052;-61
2021/06/23 04:16:01;;;;;;;6.43;4.70;;;;;;;17.55;72.38;100313.16;10472176;28;20522;-61
2021/06/23 04:21:04;;;;;;;5.50;4.20;;;;;;;17.72;71.61;100322.09;10482322;28;20656;-62
2021/06/23 04:26:05;;;;;;;5.85;4.50;;;;;;;17.78;70.80;100321.44;10473586;28;20045;-62
2021/06/23 04:31:07;;;;;;;5.63;4.22;;;;;;;17.87;71.05;100325.78;10476547;28;20060;-62
2021/06/23 04:36:09;;;;;;;6.95;4.53;;;;;;;17.95;70.73;100322.28;10473953;28;20056;-62
2021/06/23 04:41:10;;;;;;;6.47;4.72;;;;;;;18.00;70.04;100312.69;10464441;28;20068;-62
2021/06/23 04:46:12;;;;;;;6.65;4.18;;;;;;;18.17;69.69;100310.78;10466039;28;20048;-62
2021/06/23 04:51:15;;;;;;;9.30;4.68;;;;;;;18.29;69.75;100308.56;10465470;28;20044;-62
2021/06/23 04:56:17;;;;;;;6.63;4.67;;;;;;;18.47;69.16;100312.91;10463937;28;21666;-62
2021/06/23 05:01:19;;;;;;;6.30;4.50;;;;;;;18.63;68.63;100307.47;10454590;28;20372;-62
2021/06/23 05:06:20;;;;;;;9.88;4.53;;;;;;;18.68;68.02;100318.53;10420001;28;20541;-62
2021/06/23 05:11:25;;;;;;;6.50;3.97;;;;;;;18.77;67.81;100318.53;10429540;28;20522;-60
2021/06/23 05:16:29;;;;;;;5.50;4.50;;;;;;;18.87;67.98;100327.25;10432440;28;20056;-61
2021/06/23 05:21:34;;;;;;;;;;;;;;;18.83;67.65;100325.91;10432284;28;20044;-63
2021/06/23 05:26:36;;;;;;;7.60;4.43;;;;;;;18.75;68.41;100339.41;10430493;28;19940;-63
2021/06/23 05:31:37;;;;;;;7.95;5.18;;;;;;;18.87;68.56;100346.13;10424819;28;20057;-60
2021/06/23 05:36:41;;;;;;;5.80;4.45;;;;;;;19.01;67.82;100340.00;10425658;28;20060;-64
2021/06/23 05:41:42;;;;;;;8.10;4.32;;;;;;;18.98;67.54;100339.53;10422656;28;20049;-63
2021/06/23 05:46:44;;;;;;;5.53;4.75;;;;;;;19.14;67.46;100333.19;10428639;28;20053;-62
2021/06/23 05:51:46;;;;;;;8.57;4.68;;;;;;;19.28;67.02;100343.22;10428462;28;20105;-63
2021/06/23 05:56:48;;;;;;;7.43;4.30;;;;;;;19.44;66.60;100358.47;10427807;28;20063;-63
2021/06/23 06:01:49;;;;;;;7.10;4.60;;;;;;;19.58;66.20;100359.56;10426726;28;20052;-62
2021/06/23 06:06:51;;;;;;;7.78;4.63;;;;;;;19.68;65.74;100354.78;10429470;28;20775;-62
2021/06/23 06:11:53;;;;;;;6.53;4.25;;;;;;;19.84;67.01;100355.69;10435516;28;20135;-51
2021/06/23 06:16:54;;;;;;;6.95;4.35;;;;;;;19.89;65.33;100369.47;10431357;28;20052;-52
2021/06/23 06:21:56;;;;;;;7.05;3.97;;;;;;;19.78;66.21;100371.56;10433225;28;20044;-51
2021/06/23 06:26:58;;;;;;;6.25;4.05;;;;;;;19.81;65.92;100366.84;10428440;28;21651;-63
2021/06/23 06:31:59;;;;;;;6.68;4.68;;;;;;;19.73;66.32;100371.25;10424144;28;20248;-62
2021/06/23 06:37:01;;;;;;;6.90;4.13;;;;;;;19.74;66.09;100377.47;10426432;28;20505;-63
2021/06/23 06:42:04;;;;;;;8.93;5.00;;;;;;;19.75;65.90;100371.91;10426672;28;20519;-62
2021/06/23 06:47:06;;;;;;;6.88;4.57;;;;;;;19.80;66.58;100368.69;10436217;28;20048;-61
2021/06/23 06:52:07;;;;;;;5.28;4.32;;;;;;;19.91;65.82;100379.06;10426389;28;20057;-63
2021/06/23 06:57:09;;;;;;;6.30;4.53;;;;;;;19.92;65.38;100391.56;10433898;28;20040;-62
2021/06/23 07:02:10;;;;;;;7.72;4.15;;;;;;;20.00;65.55;100398.75;10433512;28;20068;-62
2021/06/23 07:07:12;;;;;;;9.57;4.63;;;;;;;20.00;65.81;100404.16;10425744;28;20048;-61
2021/06/23 07:12:14;;;;;;;7.40;4.25;;;;;;;19.96;66.25;100408.25;10424655;28;20072;-61
2021/06/23 07:17:16;;;;;;;8.85;4.30;;;;;;;19.98;66.35;100411.59;10429117;28;20493;-63
2021/06/23 07:22:17;;;;;;;11.38;5.75;;;;;;;20.02;66.26;100406.69;10428225;28;20090;-62
2021/06/23 07:27:20;;;;;;;7.15;4.00;;;;;;;20.11;66.58;100408.28;10427836;28;20911;-61
2021/06/23 07:37:26;;;;;;;6.72;5.25;;;;;;;20.16;66.17;100421.25;10427515;28;20077;-63
2021/06/23 07:42:28;;;;;;;6.70;4.45;;;;;;;20.14;65.83;100411.47;10428909;28;20052;-62
2021/06/23 07:47:36;;;;;;;4.90;4.50;;;;;;;20.11;65.61;100416.41;10433106;28;20155;-60
2021/06/23 08:08:09;;;;;;;5.35;4.53;;;;;;;20.69;65.21;100414.00;10428423;28;20049;-62
2021/06/23 08:09:08;;;;;;;5.70;4.32;;;;;;;20.96;64.29;100408.97;10431408;28;20048;-62
2021/06/23 08:13:48;;;;;;;6.20;3.70;;;;;;;21.25;63.93;100402.66;10413369;28;20127;-61
2021/06/23 08:18:49;;;;;;;8.20;3.50;;;;;;;21.65;63.18;100396.91;10431983;28;20063;-62
2021/06/23 08:23:51;;;;;;;4.85;4.10;;;;;;;21.83;61.57;100391.03;10425915;28;20098;-61
2021/06/23 08:28:53;;;;;;;5.82;3.88;;;;;;;22.03;61.37;100383.91;10431928;28;20123;-61
2021/06/23 08:33:55;;;;;;;6.18;3.95;;;;;;;22.40;61.04;100378.38;10430339;28;20657;-62
2021/06/23 08:38:56;;;;;;;3.83;3.42;;;;;;;22.31;60.97;100374.09;10429666;28;20052;-63
2021/06/23 08:43:58;;;;;;;3.38;2.92;;;;;;;22.68;60.79;100356.63;10426195;28;20055;-54
2021/06/23 08:49:01;;;;;;;6.43;4.22;;;;;;;22.91;58.99;100372.63;10425318;28;20056;-54
2021/06/23 08:54:03;;;;;;;4.13;3.80;;;;;;;23.16;58.54;100366.66;10432311;28;20056;-57
2021/06/23 08:59:05;;;;;;;4.38;3.38;;;;;;;23.53;56.91;100371.81;10434642;28;20290;-56
2021/06/23 09:04:09;;;;;;;4.63;3.80;;;;;;;23.65;56.74;100370.16;10437494;28;20417;-55
2021/06/23 09:09:30;;;;;;;4.30;3.85;;;;;;;24.38;54.05;100368.50;10435839;28;20081;-62
2021/06/23 09:14:39;;;;;;;6.22;3.80;;;;;;;25.04;52.75;100368.34;10436095;28;20047;-62
2021/06/23 09:19:47;;;;;;;4.38;3.30;;;;;;;25.22;53.03;100369.50;10430946;28;20057;-61
2021/06/23 09:24:48;;;;;;;4.10;3.40;;;;;;;25.90;50.88;100366.16;10431443;28;20494;-62
2021/06/23 09:29:51;;;;;;;4.40;3.72;;;;;;;26.19;49.76;100369.28;10443030;28;20083;-61
2021/06/23 09:34:55;;;;;;;4.78;3.80;;;;;;;25.33;51.77;100360.66;10440958;28;20058;-61
2021/06/23 09:40:17;;;;;;;3.72;3.42;;;;;;;25.60;51.38;100371.41;10444048;28;20045;-61
2021/06/23 09:45:19;;;;;;;9.82;5.32;;;;;;;25.96;50.08;100374.47;10437225;28;20502;-62
2021/06/23 09:50:23;;;;;;;4.40;4.00;;;;;;;26.19;49.53;100372.00;10431562;28;20052;-62
2021/06/23 09:55:42;;;;;;;3.95;3.50;;;;;;;27.26;47.63;100364.53;10427011;28;20032;-63
2021/06/23 10:01:00;;;;;;;4.47;4.10;;;;;;;27.41;45.83;100380.53;10431798;28;20040;-63
2021/06/23 10:06:36;;;;;;;4.63;3.85;;;;;;;26.60;47.43;100383.38;10434678;28;20044;-62
2021/06/23 10:11:39;;;;;;;4.38;3.40;;;;;;;26.32;48.94;100368.34;10393750;28;20082;-62
2021/06/23 10:16:41;;;;;;;6.63;3.20;;;;;;;26.41;48.93;100372.44;10424536;22;20044;-63
2021/06/23 10:21:44;;;;;;;4.53;4.03;;;;;;;26.98;48.20;100380.44;10397289;28;20056;-63
2021/06/23 10:26:52;;;;;;;5.30;3.28;;;;;;;27.64;46.44;100366.13;10396466;28;20053;-63
2021/06/23 10:31:54;;;;;;;3.97;2.72;;;;;;;28.15;44.85;100356.47;10399525;28;20823;-63
2021/06/23 10:36:57;;;;;;;5.82;3.45;;;;;;;28.15;44.66;100359.22;10399089;28;20049;-64
2021/06/23 10:42:04;;;;;;;5.10;3.17;;;;;;;27.75;44.95;100359.03;10398507;28;20041;-63
2021/06/23 10:47:08;;;;;;;5.28;3.40;;;;;;;27.74;45.96;100366.38;10395324;28;20049;-64
2021/06/23 10:52:22;;;;;;;4.95;3.13;;;;;;;27.28;46.43;100362.41;10394986;28;20052;-64
2021/06/23 10:57:41;;;;;;;3.67;3.00;;;;;;;27.26;45.95;100351.72;10392651;28;20045;-63
2021/06/23 11:02:48;;;;;;;3.90;3.58;;;;;;;27.39;46.92;100353.44;10390602;28;20655;-64
2021/06/23 11:07:55;;;;;;;4.75;3.72;;;;;;;27.14;45.78;100346.22;10353087;28;20136;-64
2021/06/23 11:13:03;;;;;;;4.50;3.10;;;;;;;27.08;47.56;100338.94;10351300;28;20045;-63
2021/06/23 11:18:24;;;;;;;6.07;3.10;;;;;;;27.24;46.68;100344.81;10358934;28;20691;-64
2021/06/23 11:24:01;;;;;;;3.95;3.30;;;;;;;27.41;45.80;100336.81;10350456;28;20052;-64
2021/06/23 11:29:09;;;;;;;4.88;2.78;;;;;;;27.85;44.31;100327.28;10349246;28;20068;-64
2021/06/23 11:34:30;;;;;;;3.20;2.47;;;;;;;28.13;44.70;100319.47;10360160;28;20062;-64
2021/06/23 11:39:32;;;;;;;3.50;3.17;;;;;;;28.43;42.47;100322.06;10349800;28;20045;-64
2021/06/23 11:44:35;;;;;;;2.50;2.30;;;;;;;28.69;41.93;100330.84;10355001;28;20498;-65
2021/06/23 11:49:38;;;;;;;3.65;2.95;;;;;;;28.26;41.71;100337.56;10352003;28;20049;-64
2021/06/23 11:54:40;;;;;;;4.35;3.08;;;;;;;27.70;44.01;100346.06;10346090;28;20061;-64
2021/06/23 11:59:44;;;;;;;2.90;2.70;;;;;;;27.64;44.10;100338.78;10349086;28;20050;-64
2021/06/23 12:04:46;;;;;;;3.15;2.78;;;;;;;27.69;44.02;100339.72;10346889;28;20038;-64
2021/06/23 12:09:47;;;;;;;2.67;2.47;;;;;;;27.63;43.81;100328.91;10355035;28;20476;-65
2021/06/23 12:14:49;;;;;;;2.90;1.90;;;;;;;27.76;43.77;100334.19;10355498;28;20107;-63
2021/06/23 12:19:52;;;;;;;2.83;2.50;;;;;;;27.56;43.64;100328.19;10352187;28;20057;-63
2021/06/23 12:24:54;;;;;;;3.28;3.03;;;;;;;27.70;43.87;100329.66;10355088;28;20767;-64
2021/06/23 12:29:55;;;;;;;2.53;2.33;;;;;;;27.50;45.11;100329.94;10356463;28;20049;-63
2021/06/23 12:34:59;;;;;;;3.55;2.67;;;;;;;27.85;44.19;100326.47;10360532;28;20057;-63
2021/06/23 12:40:02;;;;;;;3.47;2.47;;;;;;;27.48;44.34;100327.44;10360622;28;20049;-63
2021/06/23 12:45:04;;;;;;;2.70;2.10;;;;;;;27.45;45.08;100322.44;10362583;28;20136;-64
2021/06/23 12:50:08;;;;;;;2.28;2.00;;;;;;;27.39;44.67;100323.38;10357273;28;20053;-64
2021/06/23 12:55:10;;;;;;;2.30;2.10;;;;;;;27.30;45.30;100319.28;10365465;28;20108;-64
2021/06/23 13:00:14;;;;;;;5.43;2.58;;;;;;;26.54;46.90;100310.59;10362276;28;20056;-66
2021/06/23 13:05:18;;;;;;;3.13;2.60;;;;;;;25.91;49.19;100329.66;10365073;28;20057;-64
2021/06/23 13:10:20;;;;;;;3.95;3.20;;;;;;;25.57;50.61;100329.06;10363070;28;20065;-63
2021/06/23 13:15:21;;;;;;;4.07;3.77;;;;;;;25.45;51.49;100321.84;10356016;28;20050;-63
2021/06/23 13:20:28;;;;;;;3.70;3.35;;;;;;;25.20;51.94;100317.13;10361084;28;20049;-63
2021/06/23 13:25:29;;;;;;;4.88;3.88;;;;;;;25.30;51.98;100312.06;10362406;28;20045;-64
2021/06/23 13:30:32;;;;;;;4.28;3.17;;;;;;;26.52;49.43;100312.72;10359582;28;20052;-64
2021/06/23 13:35:34;;;;;;;5.43;3.33;;;;;;;26.96;48.48;100302.53;10357563;28;20045;-64
2021/06/23 13:40:36;;;;;;;2.93;2.73;;;;;;;27.23;47.73;100302.97;10359263;28;20057;-63
2021/06/23 13:45:40;;;;;;;3.00;2.80;;;;;;;27.44;46.70;100315.34;10356360;28;20049;-64
2021/06/23 13:50:42;;;;;;;3.67;3.10;;;;;;;27.37;46.04;100300.06;10358824;28;20091;-63
2021/06/23 13:55:44;;;;;;;3.40;3.00;;;;;;;27.11;47.21;100311.16;10363221;28;20060;-64
2021/06/23 14:00:47;;;;;;;2.90;2.40;;;;;;;27.30;46.35;100302.91;10360880;28;20613;-64
2021/06/23 14:05:48;;;;;;;;;;;;;;;27.52;45.83;100290.38;10359169;28;20050;-64
2021/06/23 14:10:50;;;;;;;3.50;2.65;;;;;;;27.72;45.96;100286.47;10362824;28;19929;-63
2021/06/23 14:15:52;;;;;;;4.30;2.60;;;;;;;27.46;46.10;100294.06;10361974;28;20056;-64
2021/06/23 14:20:53;;;;;;;3.07;2.77;;;;;;;27.39;46.50;100285.13;10364038;28;20050;-64
2021/06/23 14:25:55;;;;;;;2.90;2.65;;;;;;;27.04;47.25;100285.81;10361276;28;20064;-64
2021/06/23 14:30:57;;;;;;;2.72;2.42;;;;;;;27.21;46.92;100296.09;10362278;28;20056;-64
2021/06/23 14:36:03;;;;;;;3.45;2.88;;;;;;;27.10;46.69;100298.56;10363967;28;20407;-64
2021/06/23 14:41:05;;;;;;;4.50;2.77;;;;;;;27.13;47.58;100303.56;10360676;28;20045;-64
2021/06/23 14:46:07;;;;;;;7.45;3.13;;;;;;;26.94;48.40;100299.19;10360155;28;20037;-63
2021/06/23 14:51:09;;;;;;;6.53;3.03;;;;;;;26.83;48.11;100291.78;10360064;28;20395;-63
2021/06/23 14:56:11;;;;;;;4.60;3.37;;;;;;;26.42;49.21;100296.84;10361218;28;20061;-63
2021/06/23 15:01:12;;;;;;;4.05;3.05;;;;;;;26.43;48.37;100288.44;10357658;28;20487;-63
2021/06/23 15:06:14;;;;;;;4.03;3.67;;;;;;;26.25;49.91;100274.81;10357177;28;20053;-63
2021/06/23 15:11:16;;;;;;;3.85;3.22;;;;;;;26.35;50.61;100275.13;10355561;28;20064;-63
2021/06/23 15:16:18;;;;;;;5.00;3.47;;;;;;;26.41;50.41;100260.56;10356683;28;20506;-63
2021/06/23 15:21:20;;;;;;;3.50;3.22;;;;;;;26.36;49.66;100260.41;10354722;28;20057;-63
2021/06/23 15:26:22;;;;;;;3.07;2.33;;;;;;;26.42;48.99;100262.22;10363193;28;20053;-63
2021/06/23 15:31:23;;;;;;;3.05;2.75;;;;;;;26.01;49.20;100250.09;10359500;28;20050;-63
2021/06/23 15:36:26;;;;;;;3.57;2.40;;;;;;;26.08;49.01;100259.03;10357535;28;20061;-62
2021/06/23 15:41:27;;;;;;;4.90;2.20;;;;;;;26.17;48.42;100256.84;10356137;28;20045;-64
2021/06/23 15:46:29;;;;;;;3.22;1.83;;;;;;;26.14;48.48;100260.03;10359542;28;20283;-67
2021/06/23 15:51:31;;;;;;;2.20;2.03;;;;;;;26.08;48.57;100259.03;10357072;28;20038;-64
2021/06/23 15:56:33;;;;;;;2.40;2.15;;;;;;;26.12;48.34;100251.22;10356402;28;20057;-63
2021/06/23 16:01:35;;;;;;;2.17;2.08;;;;;;;25.94;48.19;100249.28;10356175;28;20053;-63
2021/06/23 16:06:37;;;;;;;4.80;2.33;;;;;;;25.88;49.00;100239.28;10366457;28;20506;-64
2021/06/23 16:11:39;;;;;;;2.60;2.40;;;;;;;25.66;49.40;100230.69;10370672;28;21568;-64
2021/06/23 16:16:41;;;;;;;2.55;2.35;;;;;;;25.82;48.55;100241.03;10361014;28;20053;-64
2021/06/23 16:21:46;;;;;;;3.58;2.47;;;;;;;25.72;48.34;100240.69;10368801;28;20045;-64
2021/06/23 16:26:49;;;;;;;2.00;1.88;;;;;;;25.63;48.85;100234.69;10372483;28;20053;-64
2021/06/23 16:31:50;;;;;;;2.70;2.10;;;;;;;25.47;49.07;100210.72;10368446;28;20054;-65
2021/06/23 16:36:53;;;;;;;2.95;2.30;;;;;;;25.23;50.01;100229.53;10371825;28;20198;-65
2021/06/23 16:41:55;;;;;;;;;;;;;;;25.29;49.56;100228.66;10365937;28;20064;-64
2021/06/23 16:46:56;;;;;;;2.67;2.30;;;;;;;25.24;49.66;100237.47;10360207;28;19929;-64
2021/06/23 16:51:58;;;;;;;3.17;2.25;;;;;;;25.47;49.49;100235.25;10359953;28;20045;-63
2021/06/23 16:57:00;;;;;;;2.65;2.30;;;;;;;25.46;49.27;100236.31;10358749;28;20379;-66
2021/06/23 17:02:01;;;;;;;2.90;2.70;;;;;;;25.50;49.44;100245.72;10363633;28;20053;-64
2021/06/23 17:07:06;;;;;;;3.13;2.50;;;;;;;25.47;50.09;100240.72;10364725;28;20406;-64
2021/06/23 17:12:24;;;;;;;3.50;2.92;;;;;;;25.10;52.09;100245.97;10360311;28;20360;-62
2021/06/23 17:17:26;;;;;;;3.57;2.80;;;;;;;25.01;52.73;100246.25;10351137;28;20507;-64
2021/06/23 17:22:28;;;;;;;2.85;2.55;;;;;;;24.88;53.12;100232.72;10356973;28;20053;-64
2021/06/23 17:27:30;;;;;;;3.35;2.97;;;;;;;24.99;53.35;100244.78;10354404;28;20061;-62
2021/06/23 17:32:32;;;;;;;4.22;3.65;;;;;;;24.90;53.67;100236.03;10348826;28;20048;-65
2021/06/23 17:37:34;;;;;;;3.05;2.72;;;;;;;24.73;54.00;100235.72;10357670;28;20045;-63
2021/06/23 17:42:36;;;;;;;3.05;2.85;;;;;;;24.51;54.81;100248.75;10351174;28;20089;-63
2021/06/23 17:47:38;;;;;;;4.50;3.80;;;;;;;24.45;54.85;100255.88;10353865;28;20065;-63
2021/06/23 17:52:39;;;;;;;4.18;3.40;;;;;;;24.41;55.14;100259.25;10358805;28;20060;-63
2021/06/23 17:57:41;;;;;;;3.35;2.97;;;;;;;24.35;55.67;100278.13;10349288;28;20501;-63
2021/06/23 18:02:43;;;;;;;4.05;3.38;;;;;;;24.28;55.51;100271.03;10353212;28;20185;-65
2021/06/23 18:07:44;;;;;;;3.55;3.30;;;;;;;24.25;56.13;100283.16;10349660;28;21643;-62
2021/06/23 18:12:46;;;;;;;4.20;3.72;;;;;;;24.03;56.29;100284.47;10357553;28;20049;-62
2021/06/23 18:17:48;;;;;;;3.90;3.45;;;;;;;23.76;57.82;100292.59;10354396;28;20053;-62
2021/06/23 18:22:50;;;;;;;3.80;3.50;;;;;;;23.82;57.69;100294.47;10352120;28;20049;-63
2021/06/23 18:27:53;;;;;;;3.95;3.60;;;;;;;23.79;57.47;100284.84;10352016;28;20152;-62
2021/06/23 18:32:54;;;;;;;4.60;4.20;;;;;;;23.68;58.08;100279.25;10357257;28;20045;-63
2021/06/23 18:37:56;;;;;;;6.93;4.97;;;;;;;23.47;58.49;100264.81;10356393;28;20115;-63
2021/06/23 18:42:58;;;;;;;7.47;5.18;;;;;;;23.52;58.47;100253.31;10359089;28;20045;-63
2021/06/23 18:48:01;;;;;;;3.38;2.92;;;;;;;23.30;58.50;100246.19;10353334;28;20060;-63
2021/06/23 18:53:03;;;;;;;3.88;3.47;;;;;;;23.26;58.34;100247.66;10352541;28;20045;-63
2021/06/23 18:58:04;;;;;;;3.63;3.33;;;;;;;23.27;58.01;100249.34;10351531;28;20714;-63
2021/06/23 19:03:06;;;;;;;4.97;3.35;;;;;;;23.04;58.54;100248.84;10353127;28;20102;-62
2021/06/23 19:08:08;;;;;;;4.78;3.63;;;;;;;22.93;59.19;100248.38;10351873;28;20144;-63
2021/06/23 19:13:09;;;;;;;6.85;3.65;;;;;;;22.93;58.93;100242.97;10355704;28;20493;-62
2021/06/23 19:18:11;;;;;;;4.90;3.80;;;;;;;22.89;59.00;100238.16;10350354;28;20139;-62
2021/06/23 19:23:16;;;;;;;3.80;3.50;;;;;;;22.57;59.83;100235.97;10349940;28;20103;-63
2021/06/23 19:28:18;;;;;;;3.88;3.58;;;;;;;22.44;60.50;100233.19;10351603;28;20057;-63
2021/06/23 19:33:19;;;;;;;4.32;3.92;;;;;;;22.27;61.77;100232.69;10353049;28;20124;-63
2021/06/23 19:38:21;;;;;;;4.68;3.83;;;;;;;22.24;61.66;100228.47;10340550;28;20053;-63
2021/06/23 19:43:23;;;;;;;4.78;4.20;;;;;;;22.16;62.28;100220.53;10347504;28;20050;-64
2021/06/23 19:48:25;;;;;;;4.85;4.55;;;;;;;22.17;62.31;100224.06;10326728;28;20548;-63
2021/06/23 19:53:27;;;;;;;4.88;4.35;;;;;;;22.06;63.33;100214.63;10339309;28;20068;-63
2021/06/23 19:58:28;;;;;;;5.15;4.75;;;;;;;22.13;63.56;100215.50;10346663;28;20061;-63
2021/06/23 20:03:30;;;;;;;5.90;4.43;;;;;;;22.05;63.56;100207.53;10348752;28;20057;-65
2021/06/23 20:08:32;;;;;;;5.65;5.18;;;;;;;21.86;64.44;100188.25;10353677;28;20052;-62
2021/06/23 20:13:34;;;;;;;5.88;5.20;;;;;;;21.65;64.34;100205.41;10354249;28;20054;-63
2021/06/23 20:18:35;;;;;;;6.30;4.68;;;;;;;21.70;64.09;100188.56;10347906;28;20072;-63
2021/06/23 20:23:37;;;;;;;5.07;4.68;;;;;;;21.63;64.22;100193.09;10352689;28;20685;-63
2021/06/23 20:28:38;;;;;;;7.10;5.32;;;;;;;21.51;64.00;100206.34;10346955;28;20053;-63
2021/06/23 20:33:40;;;;;;;6.95;5.60;;;;;;;21.42;64.37;100208.31;10353324;28;20049;-63
2021/06/23 20:38:43;;;;;;;5.97;5.45;;;;;;;21.31;64.28;100225.94;10350381;28;20056;-63
2021/06/23 20:43:44;;;;;;;6.07;5.55;;;;;;;21.22;64.52;100235.22;10372779;28;20505;-63
2021/06/23 20:48:46;;;;;;;5.78;5.28;;;;;;;21.21;64.58;100238.13;10376818;28;20054;-62
2021/06/23 20:53:49;;;;;;;6.82;6.13;;;;;;;21.22;64.36;100247.94;10381819;28;20049;-63
2021/06/23 20:58:51;;;;;;;5.60;5.10;;;;;;;21.24;64.38;100271.03;10385343;28;20415;-63
2021/06/23 21:04:00;;;;;;;7.43;6.68;;;;;;;21.33;64.27;100279.88;10387866;28;20056;-62
2021/06/23 21:09:05;;;;;;;7.75;5.30;;;;;;;21.21;64.55;100297.66;10380435;28;20130;-62
2021/06/23 21:14:20;;;;;;;8.95;6.35;;;;;;;21.14;64.87;100309.28;10379591;28;20449;-62
2021/06/23 21:19:33;;;;;;;6.93;5.82;;;;;;;21.12;64.87;100313.19;10393829;28;20040;-62
2021/06/23 21:24:40;;;;;;;8.25;5.82;;;;;;;21.11;65.03;100314.25;10392919;28;20045;-62
2021/06/23 21:29:44;;;;;;;5.88;5.32;;;;;;;21.27;64.42;100305.03;10389584;28;20053;-66
2021/06/23 21:34:47;;;;;;;6.43;5.90;;;;;;;21.21;65.07;100298.50;10381803;28;20513;-63
2021/06/23 21:39:49;;;;;;;;;;;;;;;21.07;65.38;100291.28;10386570;28;20054;-63
2021/06/23 21:44:51;;;;;;;6.35;5.55;;;;;;;20.95;65.48;100297.19;10383999;28;20379;-63
2021/06/23 21:49:54;;;;;;;8.45;6.25;;;;;;;20.89;65.79;100294.41;10384916;28;20435;-63
2021/06/23 21:54:55;;;;;;;6.88;6.18;;;;;;;20.57;66.45;100320.84;10381081;28;20343;-63
2021/06/23 22:00:09;;;;;;;7.10;6.00;;;;;;;20.63;67.15;100339.00;10379662;28;20049;-62
2021/06/23 22:05:12;;;;;;;8.05;6.85;;;;;;;20.57;67.27;100345.16;10379887;28;20072;-62
2021/06/23 22:10:20;;;;;;;7.03;6.30;;;;;;;20.31;67.48;100358.09;10381214;28;20052;-59
2021/06/23 22:15:27;;;;;;;7.70;6.22;;;;;;;20.38;67.93;100352.78;10380967;28;20049;-60
2021/06/23 22:20:32;;;;;;;6.90;6.05;;;;;;;20.51;67.49;100340.47;10384411;28;20045;-60
2021/06/23 22:25:34;;;;;;;7.82;7.03;;;;;;;20.43;67.18;100334.16;10395076;28;20091;-61
2021/06/23 22:30:37;;;;;;;7.13;6.35;;;;;;;20.51;66.47;100325.13;10382753;28;20057;-63
2021/06/23 22:35:39;;;;;;;7.82;6.65;;;;;;;20.49;66.79;100328.00;10382120;28;20061;-60
2021/06/23 22:40:54;;;;;;;6.78;6.18;;;;;;;20.45;66.91;100326.69;10372270;28;20061;-60
2021/06/23 22:46:00;;;;;;;7.15;6.28;;;;;;;20.53;67.08;100324.94;10374201;28;20049;-60
2021/06/23 22:51:17;;;;;;;6.65;6.05;;;;;;;20.43;67.33;100323.34;10380975;23;20117;-61
2021/06/23 22:56:24;;;;;;;7.97;6.10;;;;;;;20.28;67.52;100336.84;10403378;28;20044;-61
2021/06/23 23:01:30;;;;;;;6.97;6.28;;;;;;;20.33;67.27;100344.41;10388269;28;20529;-63
2021/06/23 23:06:32;;;;;;;6.95;6.32;;;;;;;20.34;67.45;100331.72;10387502;28;20486;-61
2021/06/23 23:11:35;;;;;;;7.57;6.57;;;;;;;20.24;67.62;100345.53;10386778;28;20054;-61
2021/06/23 23:16:42;;;;;;;6.65;6.05;;;;;;;20.16;67.52;100345.59;10391765;28;20053;-61
2021/06/23 23:21:46;;;;;;;7.65;6.82;;;;;;;20.18;67.54;100346.25;10386445;28;20510;-61
2021/06/23 23:26:48;;;;;;;9.00;6.30;;;;;;;20.20;67.94;100350.44;10388014;28;20045;-61
2021/06/23 23:31:50;;;;;;;12.07;7.38;;;;;;;20.09;67.82;100351.72;10395412;28;20049;-60
2021/06/23 23:36:52;;;;;;;9.82;7.90;;;;;;;20.06;67.68;100360.22;10396934;28;20049;-61